• Join FlightAware (Why Join?)
  • Login
  • US Flag 
 
01:17PM EST


 

Airport Tracker/Info


-or-


 

Live Flight TrackerFlight Track Log ✈ SWA1125 ✈ 28-Dec-2013 ✈ KHOU - KTPA

Flight Track Log - Related Links

Times and Time Zones

All times are in EST time to prevent confusion due to time zone crossing. See the SWA1125 flight status page for this flight to view local times or setup timezone preferences in your user account.

Time Position Orientation Groundspeed Altitude Reporting Facility
EST Latitude Longitude Course Direction KTS MPH feet Rate Location/Type
08:12PM 29.6264 -95.2589 84° East 177 204 1,000  Level Houston Center
08:13PM 29.6069 -95.2300 128° Southeast 185 213 2,200 2,160 Climbing Houston Center
08:14PM 29.5775 -95.1869 128° Southeast 208 239 4,100 2,520 Climbing Houston Center
08:14PM 29.5656 -95.1703 129° Southeast 239 275 4,800 2,340 Climbing Houston Center
08:15PM 29.5594 -95.1108 97° East 269 310 6,500 2,340 Climbing Houston Center
08:16PM 29.5894 -95.0278 67° East 289 333 9,100 2,040 Climbing Houston Center
08:17PM 29.6239 -94.9353 67° East 318 366 10,800 1,800 Climbing Houston Center
08:18PM 29.5787 -94.4942 84° East  Level Estimated
08:18PM 29.6658 -94.8222 67° East 382 440 12,800  Level Houston Center
08:19PM 29.7094 -94.6794 71° East 395 455 15,900 2,340 Climbing Houston Center
08:20PM 29.7142 -94.5486 88° East 409 471 17,700 2,100 Climbing Houston Center
08:21PM 29.7192 -94.4131 88° East 423 487 20,300 1,920 Climbing Houston Center
08:22PM 29.7150 -94.2781 92° East 425 489 21,700 1,560 Climbing Houston Center
08:23PM 29.7031 -94.1428 96° East 437 503 23,500 1,800 Climbing Houston Center
08:24PM 29.7031 -94.0028 90° East 442 509 25,500 1,620 Climbing Houston Center
08:25PM 29.7000 -93.8361 91° East 438 504 26,900 1,500 Climbing Houston Center
08:26PM 29.6969 -93.6897 91° East 455 524 28,600 1,140 Climbing Houston Center
08:27PM 29.6947 -93.5450 91° East 457 526 29,300 1,020 Climbing Houston Center
08:28PM 29.6900 -93.3967 92° East 464 534 30,800 1,020 Climbing Houston Center
08:29PM 29.6875 -93.2464 91° East 471 542 31,400 1,020 Climbing Houston Center
08:30PM 29.6833 -93.0956 92° East 474 545 33,000 1,260 Climbing Houston Center
08:31PM 29.6794 -92.9453 92° East 473 544 34,100 960 Climbing Houston Center
08:32PM 29.6753 -92.7669 91° East 470 541 35,000 420 Climbing Houston Center
08:33PM 29.6700 -92.6183 92° East 468 539 35,000  Level Houston Center
08:34PM 29.6661 -92.4686 92° East 469 540 35,000  Level Houston Center
08:35PM 29.6531 -92.3194 96° East 469 540 35,000  Level Houston Center
08:36PM 29.6225 -92.1797 104° East 454 522 35,000  Level Houston Center
08:37PM 29.5936 -92.0394 103° East 453 521 35,000  Level Houston Center
08:38PM 29.5650 -91.8975 103° East 456 525 35,000  Level Houston Center
08:39PM 29.5356 -91.7575 104° East 454 522 35,000  Level Houston Center
08:40PM 29.5064 -91.6119 103° East 453 521 35,000  Level Houston Center
08:41PM 29.4758 -91.4736 104° East 451 519 35,000  Level Houston Center
08:42PM 29.4411 -91.3067 103° East 450 518 35,000  Level Houston Center
08:43PM 29.4100 -91.1700 105° East 447 514 35,000  Level Houston Center
08:44PM 29.3808 -91.0336 104° East 443 510 35,000  Level Houston Center
08:45PM 29.3514 -90.8992 104° East 439 505 35,000  Level Houston Center
08:46PM 29.3219 -90.7633 104° East 440 506 35,000  Level Houston Center
08:47PM 29.2917 -90.6256 104° East 446 513 35,000  Level Houston Center
08:48PM 29.2622 -90.4900 104° East 444 511 35,000  Level Houston Center
08:49PM 29.2258 -90.3247 104° East 445 512 35,000  Level Houston Center
08:51PM 29.1936 -90.1861 105° East 449 517 35,000  Level Houston Center
08:52PM 29.1631 -90.0483 104° East 450 518 35,000  Level Houston Center
08:53PM 29.1358 -89.9083 103° East 453 521 35,000  Level Houston Center
08:54PM 29.1061 -89.7700 104° East 452 520 35,000  Level Houston Center
08:55PM 29.0767 -89.6317 104° East 451 519 35,000  Level Houston Center
08:56PM 29.0464 -89.4922 104° East 451 519 35,000  Level Houston Center
08:57PM 29.0169 -89.3542 104° East 451 519 35,000  Level Houston Center
08:58PM 28.9797 -89.1861 104° East 454 522 35,000  Level Houston Center
08:59PM 28.9489 -89.0467 104° East 455 524 35,000  Level Houston Center
09:00PM 28.9181 -88.9069 104° East 455 524 35,000  Level Houston Center
09:01PM 28.8872 -88.7669 104° East 456 525 35,000  Level Houston Center
09:02PM 28.8564 -88.6267 104° East 458 527 35,000  Level Houston Center
09:03PM 28.8244 -88.4872 105° East 457 526 35,000  Level Houston Center
09:04PM 28.7928 -88.3469 104° East 458 527 35,000  Level Houston Center
09:05PM 28.7608 -88.2058 104° East 460 529 35,000  Level Houston Center
09:06PM 28.7283 -88.0589 104° East 460 529 35,000  Level Houston Center
09:07PM 28.6956 -87.9169 105° East 464 534 35,000  Level Houston Center
09:08PM 28.6622 -87.7758 105° East 463 533 35,000  Level Houston Center
09:09PM 28.6250 -87.6056 104° East 463 533 35,000  Level Houston Center
09:10PM 28.6042 -87.4581 99° East 470 541 35,000  Level Houston Center
09:11PM 28.5847 -87.3100 98° East 474 545 35,000  Level Houston Center
09:12PM 28.5625 -87.1633 100° East 473 544 35,000  Level Houston Center
09:13PM 28.5414 -87.0200 99° East 465 535 35,000  Level Houston Center
09:14PM 28.5200 -86.8747 99° East 466 536 35,000  Level Houston Center
09:15PM 28.4981 -86.7286 100° East 469 540 35,000  Level Houston Center
09:16PM 28.4767 -86.5808 99° East 473 544 35,000  Level Houston Center
09:17PM 28.4450 -86.3722 100° East 472 543 35,000 -120 Level Jacksonville Center
09:18PM 28.4219 -86.2253 100° East 472 543 34,800 -780 Descending Jacksonville Center
09:19PM 28.3986 -86.0758 100° East 472 543 33,500 -1,500 Descending Jacksonville Center
09:20PM 28.3750 -85.9289 100° East 467 537 31,800 -1,740 Descending Jacksonville Center
09:21PM 28.3531 -85.7889 100° East 468 539 30,000 -1,860 Descending Jacksonville Center
09:22PM 28.3314 -85.6422 99° East 468 539 28,200 -1,560 Descending Jacksonville Center
09:24PM 28.2781 -85.3206 101° East 474 545 25,300 -1,080 Descending Miami Center
09:25PM 28.2575 -85.1778 99° East 469 540 25,000 -180 Descending Miami Center
09:26PM 28.2303 -85.0322 102° East 469 540 25,000  Level Miami Center
09:27PM 28.2092 -84.8919 100° East 469 540 25,000  Level Miami Center
09:28PM 28.1900 -84.7494 99° East 463 533 25,000  Level Miami Center
09:29PM 28.1603 -84.6039 103° East 463 533 25,000  Level Miami Center
09:30PM 28.1406 -84.4661 99° East 455 524 25,000  Level Miami Center
09:31PM 28.1164 -84.3328 102° East 455 524 25,000  Level Miami Center
09:32PM 28.0925 -84.1903 101° East 455 524 25,000 -240 Level Miami Center
09:33PM 28.0644 -84.0450 102° East 455 524 24,600 -780 Descending Miami Center
09:34PM 28.0422 -83.9050 100° East 455 524 23,500 -1,800 Descending Miami Center
09:35PM 28.0197 -83.7675 100° East 455 524 21,000 -2,400 Descending Miami Center
09:36PM 27.9950 -83.6319 102° East 450 518 18,700 -2,280 Descending Miami Center
09:37PM 27.9736 -83.5064 101° East 426 490 16,500 -2,400 Descending Miami Center
09:38PM 27.9564 -83.3808 99° East 411 473 14,000 -2,400 Descending Miami Center
09:40PM 27.9725 -83.2572 82° East 395 455 11,700 -1,920 Descending Miami Center
09:41PM 27.9922 -83.1386 79° East 390 449 10,200 -1,200 Descending Miami Center
09:42PM 28.0050 -83.0383 82° East 358 412 9,300 -1,200 Descending Miami Center
09:43PM 28.0217 -82.9428 79° East 325 374 7,800 -1,500 Descending Miami Center
09:44PM 28.0439 -82.8547 74° East 306 352 6,400 -1,140 Descending Miami Center
09:45PM 28.0931 -82.7819 53° Northeast 284 327 5,500 -1,140 Descending Miami Center
09:45PM 28.1356 -82.7089 57° Northeast 279 321 4,200 -840 Descending Miami Center
09:47PM 28.1756 -82.6450 55° Northeast 268 308 3,900 -420 Descending Miami Center
09:48PM 28.1833 -82.5667 84° East 185 213 3,300 -660 Descending Tampa TRACON
09:49PM 28.1500 -82.5333 139° Southeast 157 181 2,400 -660 Descending Tampa TRACON
09:50PM 28.1000 -82.5167 164° South 164 189 2,000 -540 Descending Tampa TRACON
09:51PM 28.0500 -82.5333 196° South 160 184 1,300 -660 Descending Tampa TRACON
09:52PM 28.0167 -82.5333 180° South 124 143 700 -600 Descending Tampa TRACON
09:54PM 27.9755 -82.5332 180° South  Level Estimated
10:01PM 27.9755 -82.5332 North  Level Estimated
10:02PM 27.9755 -82.5332 North  Level Estimated